Lake Crest, Illinois
Current Conditions -  °F | °C
As of 12:51 PM on Friday 21 Nov 2014 (Local Time) from KMWA Reporting Station
Scattered Clouds Scattered Clouds  
Wind Chill: 39°   Ceiling: Unl
Heat Index: 45°   Visibility: 20mi
Dew Point: 21°   Wind: 12mph
Humidity: 39%   Direction: 140°SE
Pressure: 30.38"   Gusts: NA
Location:  37.6398°N, 88.8751°W
Report Text: KMWA 211851Z 14010KT 20SM SCT040 07/M06 A3038
Loading
Personal Weather Stations






























Interactive Weather Map New forecast layout! Learn more

10-Day Weather Forecast

Advertisements
Track Severe Weather on mobile